sensor_id;sensor_type;location;lat;lon;timestamp;pressure;altitude;pressure_sealevel;temperature;humidity
41250;BME280;26984;59.928;30.306;2023-05-16T00:01:40;101624.38;;;16.16;55.46
41250;BME280;26984;59.928;30.306;2023-05-16T00:04:08;101619.53;;;16.18;55.56
41250;BME280;26984;59.928;30.306;2023-05-16T00:06:35;101615.59;;;16.14;55.39
41250;BME280;26984;59.928;30.306;2023-05-16T00:09:03;101610.63;;;16.11;55.64
41250;BME280;26984;59.928;30.306;2023-05-16T00:11:31;101613.22;;;16.06;55.68
41250;BME280;26984;59.928;30.306;2023-05-16T00:13:58;101608.22;;;16.02;55.47
41250;BME280;26984;59.928;30.306;2023-05-16T00:16:26;101606.94;;;16.05;55.68
41250;BME280;26984;59.928;30.306;2023-05-16T00:18:56;101600.53;;;15.99;55.63
41250;BME280;26984;59.928;30.306;2023-05-16T00:21:24;101597.88;;;15.93;55.86
41250;BME280;26984;59.928;30.306;2023-05-16T00:23:52;101601.53;;;15.87;55.99
41250;BME280;26984;59.928;30.306;2023-05-16T00:26:19;101599.78;;;15.92;56.15
41250;BME280;26984;59.928;30.306;2023-05-16T00:28:47;101588.91;;;15.92;56.09
41250;BME280;26984;59.928;30.306;2023-05-16T00:31:14;101588.41;;;15.84;56.00
41250;BME280;26984;59.928;30.306;2023-05-16T00:33:42;101586.97;;;15.81;55.96
41250;BME280;26984;59.928;30.306;2023-05-16T00:36:11;101587.88;;;15.75;55.92
41250;BME280;26984;59.928;30.306;2023-05-16T00:38:38;101592.34;;;15.69;56.17
41250;BME280;26984;59.928;30.306;2023-05-16T00:41:06;101589.06;;;15.61;56.46
41250;BME280;26984;59.928;30.306;2023-05-16T00:43:36;101592.75;;;15.48;56.66
41250;BME280;26984;59.928;30.306;2023-05-16T00:46:04;101589.50;;;15.39;56.78
41250;BME280;26984;59.928;30.306;2023-05-16T00:48:32;101595.22;;;15.31;57.04
41250;BME280;26984;59.928;30.306;2023-05-16T00:51:00;101586.06;;;15.25;57.44
41250;BME280;26984;59.928;30.306;2023-05-16T00:53:29;101578.31;;;15.29;57.88
41250;BME280;26984;59.928;30.306;2023-05-16T00:55:56;101571.31;;;15.21;58.01
41250;BME280;26984;59.928;30.306;2023-05-16T00:58:25;101586.53;;;15.22;58.56
41250;BME280;26984;59.928;30.306;2023-05-16T01:00:52;101576.66;;;15.28;58.44
41250;BME280;26984;59.928;30.306;2023-05-16T01:03:20;101569.41;;;15.22;58.56
41250;BME280;26984;59.928;30.306;2023-05-16T01:05:47;101573.56;;;15.24;58.81
41250;BME280;26984;59.928;30.306;2023-05-16T01:08:16;101573.56;;;15.24;58.93
41250;BME280;26984;59.928;30.306;2023-05-16T01:10:48;101577.78;;;15.20;59.04
41250;BME280;26984;59.928;30.306;2023-05-16T01:13:18;101583.91;;;15.16;58.86
41250;BME280;26984;59.928;30.306;2023-05-16T01:15:49;101572.44;;;15.14;59.36
41250;BME280;26984;59.928;30.306;2023-05-16T01:18:27;101581.44;;;15.07;59.48
41250;BME280;26984;59.928;30.306;2023-05-16T01:20:58;101572.34;;;15.02;59.31
41250;BME280;26984;59.928;30.306;2023-05-16T01:26:14;101583.00;;;14.97;60.57
41250;BME280;26984;59.928;30.306;2023-05-16T01:28:43;101577.19;;;14.93;60.24
41250;BME280;26984;59.928;30.306;2023-05-16T01:31:11;101579.72;;;14.95;60.31
41250;BME280;26984;59.928;30.306;2023-05-16T01:33:39;101575.97;;;14.89;60.59
41250;BME280;26984;59.928;30.306;2023-05-16T01:36:08;101572.50;;;14.82;60.44
41250;BME280;26984;59.928;30.306;2023-05-16T01:38:38;101567.31;;;14.80;60.31
41250;BME280;26984;59.928;30.306;2023-05-16T01:41:10;101564.53;;;14.87;61.30
41250;BME280;26984;59.928;30.306;2023-05-16T01:43:45;101565.81;;;14.84;60.89
41250;BME280;26984;59.928;30.306;2023-05-16T01:46:14;101562.41;;;14.89;61.26
41250;BME280;26984;59.928;30.306;2023-05-16T01:48:43;101556.56;;;14.92;61.05
41250;BME280;26984;59.928;30.306;2023-05-16T01:51:15;101558.09;;;15.06;61.02
41250;BME280;26984;59.928;30.306;2023-05-16T01:53:42;101557.72;;;15.03;61.03
41250;BME280;26984;59.928;30.306;2023-05-16T01:56:15;101553.09;;;15.03;60.74
41250;BME280;26984;59.928;30.306;2023-05-16T01:58:44;101545.13;;;15.08;60.71
41250;BME280;26984;59.928;30.306;2023-05-16T02:01:12;101551.97;;;15.11;60.52
41250;BME280;26984;59.928;30.306;2023-05-16T02:03:40;101541.22;;;15.23;60.36
41250;BME280;26984;59.928;30.306;2023-05-16T02:06:07;101542.81;;;15.30;60.26
41250;BME280;26984;59.928;30.306;2023-05-16T02:08:35;101543.50;;;15.44;59.62
41250;BME280;26984;59.928;30.306;2023-05-16T02:11:02;101547.19;;;15.50;58.98
41250;BME280;26984;59.928;30.306;2023-05-16T02:13:30;101553.44;;;15.50;58.58
41250;BME280;26984;59.928;30.306;2023-05-16T02:16:03;101552.31;;;15.58;58.34
41250;BME280;26984;59.928;30.306;2023-05-16T02:18:31;101551.03;;;15.61;58.05
41250;BME280;26984;59.928;30.306;2023-05-16T02:20:58;101547.63;;;15.65;58.03
41250;BME280;26984;59.928;30.306;2023-05-16T02:23:26;101554.69;;;15.73;57.86
41250;BME280;26984;59.928;30.306;2023-05-16T02:25:53;101545.59;;;15.79;57.40
41250;BME280;26984;59.928;30.306;2023-05-16T02:28:22;101554.72;;;15.85;56.99
41250;BME280;26984;59.928;30.306;2023-05-16T02:30:54;101560.28;;;15.90;56.59
41250;BME280;26984;59.928;30.306;2023-05-16T02:33:23;101553.03;;;16.02;56.40
41250;BME280;26984;59.928;30.306;2023-05-16T02:35:51;101549.53;;;16.13;55.89
41250;BME280;26984;59.928;30.306;2023-05-16T02:38:19;101547.56;;;16.20;55.52
41250;BME280;26984;59.928;30.306;2023-05-16T02:40:47;101546.03;;;16.24;55.15
41250;BME280;26984;59.928;30.306;2023-05-16T02:43:15;101540.84;;;16.35;54.81
41250;BME280;26984;59.928;30.306;2023-05-16T02:45:42;101536.38;;;16.40;54.58
41250;BME280;26984;59.928;30.306;2023-05-16T02:48:10;101530.59;;;16.48;54.20
41250;BME280;26984;59.928;30.306;2023-05-16T02:50:39;101530.13;;;16.51;54.00
41250;BME280;26984;59.928;30.306;2023-05-16T02:53:07;101526.81;;;16.61;53.89
41250;BME280;26984;59.928;30.306;2023-05-16T02:55:35;101528.84;;;16.66;53.36
41250;BME280;26984;59.928;30.306;2023-05-16T02:58:02;101530.25;;;16.68;53.21
41250;BME280;26984;59.928;30.306;2023-05-16T03:00:30;101524.06;;;16.80;52.85
41250;BME280;26984;59.928;30.306;2023-05-16T03:02:57;101530.44;;;16.85;52.63
41250;BME280;26984;59.928;30.306;2023-05-16T03:05:25;101527.72;;;16.97;52.12
41250;BME280;26984;59.928;30.306;2023-05-16T03:07:54;101528.41;;;16.92;52.06
41250;BME280;26984;59.928;30.306;2023-05-16T03:10:21;101524.66;;;16.93;51.91
41250;BME280;26984;59.928;30.306;2023-05-16T03:12:49;101523.22;;;17.03;51.55
41250;BME280;26984;59.928;30.306;2023-05-16T03:15:16;101520.03;;;16.94;51.64
41250;BME280;26984;59.928;30.306;2023-05-16T03:17:43;101523.94;;;16.98;51.74
41250;BME280;26984;59.928;30.306;2023-05-16T03:20:11;101517.78;;;17.03;51.42
41250;BME280;26984;59.928;30.306;2023-05-16T03:22:39;101522.03;;;17.10;51.33
41250;BME280;26984;59.928;30.306;2023-05-16T03:25:08;101519.78;;;17.07;51.37
41250;BME280;26984;59.928;30.306;2023-05-16T03:27:40;101514.19;;;17.14;51.07
41250;BME280;26984;59.928;30.306;2023-05-16T03:30:07;101517.53;;;17.04;51.40
41250;BME280;26984;59.928;30.306;2023-05-16T03:32:36;101515.28;;;17.13;51.19
41250;BME280;26984;59.928;30.306;2023-05-16T03:35:04;101515.03;;;17.03;51.19
41250;BME280;26984;59.928;30.306;2023-05-16T03:37:31;101504.63;;;16.99;51.60
41250;BME280;26984;59.928;30.306;2023-05-16T03:39:59;101503.34;;;17.02;51.50
41250;BME280;26984;59.928;30.306;2023-05-16T03:42:30;101500.97;;;16.94;51.56
41250;BME280;26984;59.928;30.306;2023-05-16T03:44:57;101505.13;;;16.85;51.61
41250;BME280;26984;59.928;30.306;2023-05-16T03:47:25;101508.09;;;16.83;51.76
41250;BME280;26984;59.928;30.306;2023-05-16T03:49:56;101500.47;;;16.73;52.05
41250;BME280;26984;59.928;30.306;2023-05-16T03:52:23;101493.59;;;16.71;51.98
41250;BME280;26984;59.928;30.306;2023-05-16T03:54:51;101494.31;;;16.66;52.02
41250;BME280;26984;59.928;30.306;2023-05-16T03:57:18;101489.34;;;16.63;52.46
41250;BME280;26984;59.928;30.306;2023-05-16T03:59:47;101490.41;;;16.62;52.49
41250;BME280;26984;59.928;30.306;2023-05-16T04:02:15;101496.22;;;16.66;52.46
41250;BME280;26984;59.928;30.306;2023-05-16T04:04:42;101487.00;;;16.79;52.29
41250;BME280;26984;59.928;30.306;2023-05-16T04:07:10;101491.63;;;17.02;51.97
41250;BME280;26984;59.928;30.306;2023-05-16T04:09:38;101497.75;;;17.20;51.34
41250;BME280;26984;59.928;30.306;2023-05-16T04:12:05;101492.25;;;17.32;50.99
41250;BME280;26984;59.928;30.306;2023-05-16T04:14:33;101495.66;;;17.51;50.92
41250;BME280;26984;59.928;30.306;2023-05-16T04:17:02;101492.50;;;17.71;50.27
41250;BME280;26984;59.928;30.306;2023-05-16T04:19:29;101492.59;;;17.88;49.88
41250;BME280;26984;59.928;30.306;2023-05-16T04:21:57;101491.72;;;17.99;49.13
41250;BME280;26984;59.928;30.306;2023-05-16T04:24:24;101494.88;;;18.08;49.05
41250;BME280;26984;59.928;30.306;2023-05-16T04:26:53;101486.53;;;18.14;48.67
41250;BME280;26984;59.928;30.306;2023-05-16T04:29:21;101481.44;;;18.18;48.66
41250;BME280;26984;59.928;30.306;2023-05-16T04:31:48;101464.22;;;18.34;48.21
41250;BME280;26984;59.928;30.306;2023-05-16T04:34:17;101469.91;;;18.50;47.94
41250;BME280;26984;59.928;30.306;2023-05-16T04:36:45;101466.84;;;18.63;47.40
41250;BME280;26984;59.928;30.306;2023-05-16T04:39:12;101473.72;;;18.65;47.29
41250;BME280;26984;59.928;30.306;2023-05-16T04:41:40;101478.59;;;18.63;47.29
41250;BME280;26984;59.928;30.306;2023-05-16T04:44:07;101472.00;;;18.59;47.03
41250;BME280;26984;59.928;30.306;2023-05-16T04:46:36;101471.56;;;18.67;47.09
41250;BME280;26984;59.928;30.306;2023-05-16T04:49:03;101483.00;;;18.81;47.03
41250;BME280;26984;59.928;30.306;2023-05-16T04:51:32;101472.81;;;18.94;46.47
41250;BME280;26984;59.928;30.306;2023-05-16T04:54:00;101477.06;;;19.06;46.21
41250;BME280;26984;59.928;30.306;2023-05-16T04:56:27;101474.75;;;19.15;45.95
41250;BME280;26984;59.928;30.306;2023-05-16T04:58:54;101476.69;;;19.20;45.79
41250;BME280;26984;59.928;30.306;2023-05-16T05:01:22;101468.91;;;19.28;45.55
41250;BME280;26984;59.928;30.306;2023-05-16T05:03:50;101469.31;;;19.42;45.70
41250;BME280;26984;59.928;30.306;2023-05-16T05:06:17;101453.81;;;19.48;45.43
41250;BME280;26984;59.928;30.306;2023-05-16T05:08:47;101476.38;;;19.60;45.54
41250;BME280;26984;59.928;30.306;2023-05-16T05:11:15;101472.41;;;19.68;45.36
41250;BME280;26984;59.928;30.306;2023-05-16T05:13:43;101467.50;;;19.70;45.22
41250;BME280;26984;59.928;30.306;2023-05-16T05:16:13;101466.34;;;19.66;45.29
41250;BME280;26984;59.928;30.306;2023-05-16T05:18:40;101469.19;;;19.76;45.11
41250;BME280;26984;59.928;30.306;2023-05-16T05:21:09;101464.03;;;19.79;45.16
41250;BME280;26984;59.928;30.306;2023-05-16T05:23:37;101459.31;;;19.97;44.84
41250;BME280;26984;59.928;30.306;2023-05-16T05:26:07;101454.16;;;20.05;44.51
41250;BME280;26984;59.928;30.306;2023-05-16T05:28:38;101458.88;;;20.10;44.74
41250;BME280;26984;59.928;30.306;2023-05-16T05:31:08;101460.03;;;20.19;44.40
41250;BME280;26984;59.928;30.306;2023-05-16T05:33:44;101452.50;;;20.31;44.23
41250;BME280;26984;59.928;30.306;2023-05-16T05:36:13;101449.03;;;20.46;43.86
41250;BME280;26984;59.928;30.306;2023-05-16T05:38:41;101446.97;;;20.59;43.54
41250;BME280;26984;59.928;30.306;2023-05-16T05:41:13;101445.56;;;20.56;43.56
41250;BME280;26984;59.928;30.306;2023-05-16T05:43:41;101450.22;;;20.55;43.38
41250;BME280;26984;59.928;30.306;2023-05-16T05:46:11;101447.56;;;20.66;43.40
41250;BME280;26984;59.928;30.306;2023-05-16T05:48:40;101447.63;;;20.76;43.14
41250;BME280;26984;59.928;30.306;2023-05-16T05:51:08;101447.34;;;20.77;43.08
41250;BME280;26984;59.928;30.306;2023-05-16T05:53:35;101436.97;;;20.85;43.00
41250;BME280;26984;59.928;30.306;2023-05-16T05:56:05;101434.25;;;20.85;42.63
41250;BME280;26984;59.928;30.306;2023-05-16T05:58:34;101442.72;;;20.83;42.92
41250;BME280;26984;59.928;30.306;2023-05-16T06:01:03;101445.47;;;20.83;42.75
41250;BME280;26984;59.928;30.306;2023-05-16T06:03:32;101443.31;;;20.90;42.94
41250;BME280;26984;59.928;30.306;2023-05-16T06:05:59;101444.19;;;21.01;42.38
41250;BME280;26984;59.928;30.306;2023-05-16T06:08:27;101436.56;;;21.08;42.46
41250;BME280;26984;59.928;30.306;2023-05-16T06:10:54;101433.63;;;21.30;41.93
41250;BME280;26984;59.928;30.306;2023-05-16T06:13:22;101434.56;;;21.46;41.66
41250;BME280;26984;59.928;30.306;2023-05-16T06:15:51;101431.28;;;21.59;41.57
41250;BME280;26984;59.928;30.306;2023-05-16T06:18:19;101429.69;;;21.84;41.10
41250;BME280;26984;59.928;30.306;2023-05-16T06:20:46;101428.06;;;22.08;40.31
41250;BME280;26984;59.928;30.306;2023-05-16T06:23:14;101423.16;;;22.26;40.00
41250;BME280;26984;59.928;30.306;2023-05-16T06:25:41;101422.03;;;22.37;39.19
41250;BME280;26984;59.928;30.306;2023-05-16T06:28:09;101416.28;;;22.49;39.09
41250;BME280;26984;59.928;30.306;2023-05-16T06:30:36;101415.16;;;22.55;38.75
41250;BME280;26984;59.928;30.306;2023-05-16T06:33:05;101415.41;;;22.58;38.21
41250;BME280;26984;59.928;30.306;2023-05-16T06:35:33;101409.94;;;22.53;38.30
41250;BME280;26984;59.928;30.306;2023-05-16T06:38:00;101411.59;;;22.59;38.38
41250;BME280;26984;59.928;30.306;2023-05-16T06:40:27;101408.78;;;22.69;38.54
41250;BME280;26984;59.928;30.306;2023-05-16T06:42:55;101394.75;;;22.81;38.20
41250;BME280;26984;59.928;30.306;2023-05-16T06:45:23;101400.22;;;22.91;38.54
41250;BME280;26984;59.928;30.306;2023-05-16T06:47:50;101396.63;;;23.06;38.41
41250;BME280;26984;59.928;30.306;2023-05-16T06:50:19;101398.22;;;23.17;38.06
41250;BME280;26984;59.928;30.306;2023-05-16T06:52:47;101398.19;;;23.23;37.92
41250;BME280;26984;59.928;30.306;2023-05-16T06:55:15;101389.88;;;23.33;37.48
41250;BME280;26984;59.928;30.306;2023-05-16T06:57:42;101394.22;;;23.44;36.97
41250;BME280;26984;59.928;30.306;2023-05-16T07:00:10;101382.34;;;23.54;36.26
41250;BME280;26984;59.928;30.306;2023-05-16T07:02:38;101382.59;;;23.57;36.02
41250;BME280;26984;59.928;30.306;2023-05-16T07:05:05;101387.47;;;23.65;35.46
41250;BME280;26984;59.928;30.306;2023-05-16T07:07:35;101378.41;;;23.70;34.91
41250;BME280;26984;59.928;30.306;2023-05-16T07:10:02;101377.03;;;23.68;34.46
41250;BME280;26984;59.928;30.306;2023-05-16T07:12:30;101383.09;;;23.64;34.38
41250;BME280;26984;59.928;30.306;2023-05-16T07:14:57;101381.44;;;23.63;33.58
41250;BME280;26984;59.928;30.306;2023-05-16T07:17:25;101370.44;;;23.69;33.18
41250;BME280;26984;59.928;30.306;2023-05-16T07:19:52;101374.28;;;23.68;33.45
41250;BME280;26984;59.928;30.306;2023-05-16T07:22:20;101369.06;;;23.66;33.46
41250;BME280;26984;59.928;30.306;2023-05-16T07:24:49;101367.41;;;23.65;33.19
41250;BME280;26984;59.928;30.306;2023-05-16T07:27:18;101372.34;;;23.68;33.06
41250;BME280;26984;59.928;30.306;2023-05-16T07:29:45;101367.13;;;23.66;33.54
41250;BME280;26984;59.928;30.306;2023-05-16T07:32:13;101370.09;;;23.75;33.72
41250;BME280;26984;59.928;30.306;2023-05-16T07:34:41;101371.91;;;23.90;32.99
41250;BME280;26984;59.928;30.306;2023-05-16T07:37:08;101368.00;;;23.96;32.55
41250;BME280;26984;59.928;30.306;2023-05-16T07:39:38;101358.88;;;24.01;32.21
41250;BME280;26984;59.928;30.306;2023-05-16T07:42:07;101361.38;;;23.97;31.97
41250;BME280;26984;59.928;30.306;2023-05-16T07:44:34;101357.56;;;23.93;32.53
41250;BME280;26984;59.928;30.306;2023-05-16T07:47:02;101355.69;;;23.88;32.17
41250;BME280;26984;59.928;30.306;2023-05-16T07:49:29;101354.56;;;23.95;32.33
41250;BME280;26984;59.928;30.306;2023-05-16T07:51:57;101347.78;;;24.11;31.88
41250;BME280;26984;59.928;30.306;2023-05-16T07:54:24;101347.75;;;24.16;31.88
41250;BME280;26984;59.928;30.306;2023-05-16T07:56:52;101342.72;;;24.23;31.78
41250;BME280;26984;59.928;30.306;2023-05-16T07:59:21;101347.88;;;24.30;31.56
41250;BME280;26984;59.928;30.306;2023-05-16T08:01:49;101348.41;;;24.32;31.49
41250;BME280;26984;59.928;30.306;2023-05-16T08:04:16;101347.03;;;24.29;31.48
41250;BME280;26984;59.928;30.306;2023-05-16T08:06:45;101351.72;;;24.29;31.65
41250;BME280;26984;59.928;30.306;2023-05-16T08:09:12;101347.88;;;24.30;31.61
41250;BME280;26984;59.928;30.306;2023-05-16T08:11:40;101347.88;;;24.30;31.73
41250;BME280;26984;59.928;30.306;2023-05-16T08:14:10;101352.56;;;24.29;31.88
41250;BME280;26984;59.928;30.306;2023-05-16T08:16:39;101351.16;;;24.32;32.20
41250;BME280;26984;59.928;30.306;2023-05-16T08:19:06;101347.16;;;24.48;31.37
41250;BME280;26984;59.928;30.306;2023-05-16T08:21:34;101342.06;;;24.60;31.75
41250;BME280;26984;59.928;30.306;2023-05-16T08:24:02;101339.25;;;24.66;31.89
41250;BME280;26984;59.928;30.306;2023-05-16T08:26:30;101341.53;;;24.58;32.01
41250;BME280;26984;59.928;30.306;2023-05-16T08:28:58;101340.59;;;24.68;32.00
41250;BME280;26984;59.928;30.306;2023-05-16T08:31:26;101339.19;;;24.71;31.86
41250;BME280;26984;59.928;30.306;2023-05-16T08:33:55;101340.81;;;24.72;31.65
41250;BME280;26984;59.928;30.306;2023-05-16T08:36:24;101329.28;;;24.70;31.72
41250;BME280;26984;59.928;30.306;2023-05-16T08:38:52;101328.03;;;24.81;31.26
41250;BME280;26984;59.928;30.306;2023-05-16T08:41:19;101324.03;;;24.92;31.26
41250;BME280;26984;59.928;30.306;2023-05-16T08:43:47;101328.38;;;24.98;30.99
41250;BME280;26984;59.928;30.306;2023-05-16T08:46:15;101323.34;;;25.00;31.25
41250;BME280;26984;59.928;30.306;2023-05-16T08:48:46;101322.91;;;24.93;31.70
41250;BME280;26984;59.928;30.306;2023-05-16T08:51:15;101320.69;;;24.95;31.59
41250;BME280;26984;59.928;30.306;2023-05-16T08:53:44;101328.06;;;25.00;31.50
41250;BME280;26984;59.928;30.306;2023-05-16T08:56:11;101326.13;;;25.00;31.48
41250;BME280;26984;59.928;30.306;2023-05-16T08:58:39;101318.75;;;24.96;31.71
41250;BME280;26984;59.928;30.306;2023-05-16T09:01:07;101314.63;;;24.93;31.78
41250;BME280;26984;59.928;30.306;2023-05-16T09:03:35;101318.59;;;24.87;32.00
41250;BME280;26984;59.928;30.306;2023-05-16T09:06:03;101307.50;;;24.92;31.94
41250;BME280;26984;59.928;30.306;2023-05-16T09:08:32;101302.44;;;24.99;31.72
41250;BME280;26984;59.928;30.306;2023-05-16T09:11:00;101309.19;;;25.12;32.10
41250;BME280;26984;59.928;30.306;2023-05-16T09:13:28;101305.22;;;25.18;31.92
41250;BME280;26984;59.928;30.306;2023-05-16T09:16:08;101309.91;;;25.18;32.23
41250;BME280;26984;59.928;30.306;2023-05-16T09:18:36;101305.00;;;25.15;31.66
41250;BME280;26984;59.928;30.306;2023-05-16T09:21:04;101310.00;;;25.13;31.74
41250;BME280;26984;59.928;30.306;2023-05-16T09:23:34;101302.00;;;25.11;31.58
41250;BME280;26984;59.928;30.306;2023-05-16T09:26:01;101300.81;;;25.17;31.21
41250;BME280;26984;59.928;30.306;2023-05-16T09:28:29;101304.00;;;25.05;31.32
41250;BME280;26984;59.928;30.306;2023-05-16T09:30:57;101288.97;;;24.98;31.12
41250;BME280;26984;59.928;30.306;2023-05-16T09:33:26;101305.28;;;24.94;31.19
41250;BME280;26984;59.928;30.306;2023-05-16T09:35:54;101306.81;;;25.00;31.27
41250;BME280;26984;59.928;30.306;2023-05-16T09:38:23;101293.75;;;25.11;31.47
41250;BME280;26984;59.928;30.306;2023-05-16T09:40:52;101289.22;;;25.20;31.06
41250;BME280;26984;59.928;30.306;2023-05-16T09:43:21;101287.34;;;25.35;31.20
41250;BME280;26984;59.928;30.306;2023-05-16T09:45:49;101283.59;;;25.25;30.77
41250;BME280;26984;59.928;30.306;2023-05-16T09:48:17;101279.81;;;25.21;30.72
41250;BME280;26984;59.928;30.306;2023-05-16T09:50:48;101283.38;;;25.22;30.45
41250;BME280;26984;59.928;30.306;2023-05-16T09:53:17;101279.16;;;25.29;30.42
41250;BME280;26984;59.928;30.306;2023-05-16T09:55:45;101280.63;;;25.41;30.39
41250;BME280;26984;59.928;30.306;2023-05-16T09:58:17;101270.53;;;25.50;30.29
41250;BME280;26984;59.928;30.306;2023-05-16T10:00:45;101272.09;;;25.56;30.15
41250;BME280;26984;59.928;30.306;2023-05-16T10:03:12;101268.69;;;25.45;30.38
41250;BME280;26984;59.928;30.306;2023-05-16T10:05:41;101268.25;;;25.38;30.42
41250;BME280;26984;59.928;30.306;2023-05-16T10:08:09;101253.91;;;25.55;30.18
41250;BME280;26984;59.928;30.306;2023-05-16T10:10:37;101260.78;;;25.71;29.78
41250;BME280;26984;59.928;30.306;2023-05-16T10:13:06;101245.94;;;25.67;29.71
41250;BME280;26984;59.928;30.306;2023-05-16T10:18:05;101257.81;;;25.68;29.50
41250;BME280;26984;59.928;30.306;2023-05-16T10:20:37;101262.00;;;25.65;29.42
41250;BME280;26984;59.928;30.306;2023-05-16T10:23:04;101259.25;;;25.65;29.27
41250;BME280;26984;59.928;30.306;2023-05-16T10:25:33;101238.19;;;25.69;29.27
41250;BME280;26984;59.928;30.306;2023-05-16T10:28:03;101254.84;;;25.64;29.13
41250;BME280;26984;59.928;30.306;2023-05-16T10:30:32;101254.50;;;25.52;29.02
41250;BME280;26984;59.928;30.306;2023-05-16T10:33:00;101247.22;;;25.42;29.03
41250;BME280;26984;59.928;30.306;2023-05-16T10:35:30;101249.69;;;25.44;29.08
41250;BME280;26984;59.928;30.306;2023-05-16T10:37:58;101253.31;;;25.39;29.05
41250;BME280;26984;59.928;30.306;2023-05-16T10:40:26;101260.88;;;25.34;29.06
41250;BME280;26984;59.928;30.306;2023-05-16T10:42:55;101253.03;;;25.41;28.60
41250;BME280;26984;59.928;30.306;2023-05-16T10:45:23;101248.19;;;25.51;28.93
41250;BME280;26984;59.928;30.306;2023-05-16T10:47:51;101244.81;;;25.68;28.65
41250;BME280;26984;59.928;30.306;2023-05-16T10:50:36;101252.91;;;25.78;28.66
41250;BME280;26984;59.928;30.306;2023-05-16T10:53:14;101238.47;;;25.87;28.46
41250;BME280;26984;59.928;30.306;2023-05-16T10:58:32;101236.22;;;26.02;28.33
41250;BME280;26984;59.928;30.306;2023-05-16T11:01:15;101245.72;;;25.96;28.53
41250;BME280;26984;59.928;30.306;2023-05-16T11:03:59;101237.03;;;26.03;28.32
41250;BME280;26984;59.928;30.306;2023-05-16T11:06:30;101228.97;;;26.07;28.25
41250;BME280;26984;59.928;30.306;2023-05-16T11:09:05;101237.97;;;26.12;28.06
41250;BME280;26984;59.928;30.306;2023-05-16T11:11:38;101232.94;;;26.14;27.95
41250;BME280;26984;59.928;30.306;2023-05-16T11:14:06;101227.75;;;26.26;27.78
41250;BME280;26984;59.928;30.306;2023-05-16T11:16:34;101229.69;;;26.40;27.67
41250;BME280;26984;59.928;30.306;2023-05-16T11:19:04;101235.00;;;26.50;27.93
41250;BME280;26984;59.928;30.306;2023-05-16T11:24:29;101218.59;;;26.67;28.24
41250;BME280;26984;59.928;30.306;2023-05-16T11:26:57;101214.13;;;26.58;28.37
41250;BME280;26984;59.928;30.306;2023-05-16T11:29:25;101210.56;;;26.43;28.21
41250;BME280;26984;59.928;30.306;2023-05-16T11:31:54;101205.25;;;26.19;28.46
41250;BME280;26984;59.928;30.306;2023-05-16T11:34:21;101212.31;;;25.98;28.85
41250;BME280;26984;59.928;30.306;2023-05-16T11:36:49;101204.50;;;25.72;28.99
41250;BME280;26984;59.928;30.306;2023-05-16T11:39:17;101206.41;;;25.58;29.24
41250;BME280;26984;59.928;30.306;2023-05-16T11:41:46;101208.94;;;25.54;29.29
41250;BME280;26984;59.928;30.306;2023-05-16T11:44:14;101202.78;;;25.44;29.33
41250;BME280;26984;59.928;30.306;2023-05-16T11:46:41;101201.09;;;25.29;29.47
41250;BME280;26984;59.928;30.306;2023-05-16T11:49:09;101207.75;;;25.09;29.75
41250;BME280;26984;59.928;30.306;2023-05-16T11:51:37;101208.81;;;24.94;29.93
41250;BME280;26984;59.928;30.306;2023-05-16T11:54:05;101205.88;;;24.85;29.86
41250;BME280;26984;59.928;30.306;2023-05-16T11:56:34;101202.63;;;24.83;29.81
41250;BME280;26984;59.928;30.306;2023-05-16T11:59:03;101197.13;;;24.83;30.06
41250;BME280;26984;59.928;30.306;2023-05-16T12:01:31;101197.84;;;24.70;29.97
41250;BME280;26984;59.928;30.306;2023-05-16T12:03:59;101203.38;;;24.51;30.36
41250;BME280;26984;59.928;30.306;2023-05-16T12:06:27;101200.97;;;24.45;30.60
41250;BME280;26984;59.928;30.306;2023-05-16T12:08:56;101185.50;;;24.25;30.42
41250;BME280;26984;59.928;30.306;2023-05-16T12:11:23;101182.41;;;24.07;30.63
41250;BME280;26984;59.928;30.306;2023-05-16T12:13:52;101186.22;;;23.87;31.27
41250;BME280;26984;59.928;30.306;2023-05-16T12:16:21;101185.03;;;23.70;31.14
41250;BME280;26984;59.928;30.306;2023-05-16T12:18:49;101189.66;;;23.45;31.67
41250;BME280;26984;59.928;30.306;2023-05-16T12:21:18;101193.00;;;23.37;31.70
41250;BME280;26984;59.928;30.306;2023-05-16T12:23:45;101197.75;;;23.31;31.57
41250;BME280;26984;59.928;30.306;2023-05-16T12:26:13;101186.03;;;23.15;31.56
41250;BME280;26984;59.928;30.306;2023-05-16T12:28:40;101191.00;;;23.13;32.07
41250;BME280;26984;59.928;30.306;2023-05-16T12:31:10;101183.59;;;23.14;31.92
41250;BME280;26984;59.928;30.306;2023-05-16T12:33:40;101176.47;;;23.08;32.15
41250;BME280;26984;59.928;30.306;2023-05-16T12:36:11;101172.66;;;23.09;32.50
41250;BME280;26984;59.928;30.306;2023-05-16T12:38:39;101178.34;;;23.17;32.31
41250;BME280;26984;59.928;30.306;2023-05-16T12:41:07;101165.63;;;23.27;32.36
41250;BME280;26984;59.928;30.306;2023-05-16T12:43:35;101166.03;;;23.39;32.13
41250;BME280;26984;59.928;30.306;2023-05-16T12:46:02;101163.78;;;23.46;32.12
41250;BME280;26984;59.928;30.306;2023-05-16T12:48:36;101155.72;;;23.55;32.02
41250;BME280;26984;59.928;30.306;2023-05-16T12:51:10;101152.31;;;23.68;31.89
41250;BME280;26984;59.928;30.306;2023-05-16T12:53:42;101158.94;;;23.62;31.94
41250;BME280;26984;59.928;30.306;2023-05-16T12:56:10;101158.34;;;23.65;31.71
41250;BME280;26984;59.928;30.306;2023-05-16T12:58:38;101149.00;;;23.66;31.64